Stolt Effort — ZCSP6 — position and weather

sailwx.info

Track history (hours):
 
Tides and Currents Weather Stations Pressure Air Temp Water Temp Dewpoint Dewpoint Depression Visibility Wind Speed Wind Dir Waves Ship Positions

Stolt Effort

Last reported at 2016-Dec-28 21:11 UTC. Time now 2017-Jan-23 23:12 UTC.
Position N 29°56' W 090°08'.
Warning: this ship's position is 26 days out of date.

Length 176 m; draft 11.2 m.

Type: Ship. MMSI: 319445000.

Date/timePositionNaut miles runAvg speedWind from/ knotsBaromVisibWave heightAir tempDewpointWater temp
2016-Dec-28 21:11N 29°56' W 090°08'17 0.3
2016-Dec-26 17:25N 29°60' W 090°28'8 7.4
2016-Dec-26 16:21N 29°56' W 090°20'2 2.8
2016-Dec-26 15:33N 29°58' W 090°18'0 0.0
2016-Dec-26 14:21N 29°58' W 090°18'0 0.0
2016-Dec-26 13:30N 29°58' W 090°18'0 0.0
2016-Dec-26 12:15N 29°58' W 090°18'0 0.0
2016-Dec-26 11:24N 29°58' W 090°18'0 0.0
2016-Dec-26 10:30N 29°58' W 090°18'0 0.0
2016-Dec-26 09:30N 29°58' W 090°18'0 0.0
2016-Dec-26 02:12N 29°58' W 090°18'1 2.0
2016-Dec-26 01:33N 29°58' W 090°17'7 7.5
2016-Dec-26 00:33N 29°56' W 090°08'  
2016-Dec-19 11:24N 29°37' W 095°01'  
Track history (hours):
 
Tides and Currents Weather Stations Pressure Air Temp Water Temp Dewpoint Dewpoint Depression Visibility Wind Speed Wind Dir Waves Ship Positions

Stolt Effort

Last reported at 2016-Dec-28 21:11 UTC. Time now 2017-Jan-23 23:12 UTC.
Position N 29°56' W 090°08'.
Warning: this ship's position is 26 days out of date.

Length 176 m; draft 11.2 m.

Type: Ship. MMSI: 319445000.

Date/timePositionNaut miles runAvg speedWind from/ knotsBaromVisibWave heightAir tempDewpointWater temp
2016-Dec-28 21:11N 29°56' W 090°08'17 0.3
2016-Dec-26 17:25N 29°60' W 090°28'8 7.4
2016-Dec-26 16:21N 29°56' W 090°20'2 2.8
2016-Dec-26 15:33N 29°58' W 090°18'0 0.0
2016-Dec-26 14:21N 29°58' W 090°18'0 0.0
2016-Dec-26 13:30N 29°58' W 090°18'0 0.0
2016-Dec-26 12:15N 29°58' W 090°18'0 0.0
2016-Dec-26 11:24N 29°58' W 090°18'0 0.0
2016-Dec-26 10:30N 29°58' W 090°18'0 0.0
2016-Dec-26 09:30N 29°58' W 090°18'0 0.0
2016-Dec-26 02:12N 29°58' W 090°18'1 2.0
2016-Dec-26 01:33N 29°58' W 090°17'7 7.5
2016-Dec-26 00:33N 29°56' W 090°08'  
2016-Dec-19 11:24N 29°37' W 095°01'  

Dump ship's entire track history